Time;durP1;ratioP1;P1;durP2;ratioP2;P2;SDS_P1;SDS_P2;PMS_P1;PMS_P2;Temp;Humidity;BMP_temperature;BMP_pressure;BME280_temperature;BME280_humidity;BME280_pressure;Samples;Min_cycle;Max_cycle;Signal;HPM_P1;HPM_P2
2021/10/19 00:01:22;;;;;;;7.43;6.45;;;14.60;99.90;;;;;;5087080;28;20032;-43
2021/10/19 00:03:48;;;;;;;8.50;6.68;;;14.50;99.90;;;;;;5086584;28;20028;-44
2021/10/19 00:06:14;;;;;;;7.10;6.40;;;14.60;99.90;;;;;;5086503;28;20070;-43
2021/10/19 00:08:39;;;;;;;9.35;6.57;;;14.60;99.90;;;;;;5087302;28;20077;-44
2021/10/19 00:11:05;;;;;;;7.88;6.53;;;14.60;99.90;;;;;;5085755;28;20024;-43
2021/10/19 00:13:31;;;;;;;7.63;6.10;;;14.60;99.90;;;;;;5087462;28;20090;-44
2021/10/19 00:15:57;;;;;;;8.68;6.18;;;14.50;99.90;;;;;;5086401;28;20089;-44
2021/10/19 00:18:23;;;;;;;7.95;6.53;;;14.50;99.90;;;;;;5086201;28;20023;-42
2021/10/19 00:20:48;;;;;;;9.15;7.10;;;14.50;99.90;;;;;;5087262;28;20106;-43
2021/10/19 00:23:14;;;;;;;8.15;7.28;;;14.50;99.90;;;;;;5086536;28;20761;-42
2021/10/19 00:25:39;;;;;;;7.65;6.82;;;14.60;99.90;;;;;;5086497;28;20046;-43
2021/10/19 00:28:06;;;;;;;9.45;6.75;;;14.50;99.90;;;;;;5086155;28;20073;-44
2021/10/19 00:30:32;;;;;;;10.27;6.68;;;14.60;99.90;;;;;;5087146;28;20024;-43
2021/10/19 00:32:57;;;;;;;7.78;6.38;;;14.60;99.90;;;;;;5086297;28;20032;-43
2021/10/19 00:35:23;;;;;;;8.63;6.65;;;14.50;99.90;;;;;;5086655;28;20479;-43
2021/10/19 00:37:48;;;;;;;8.02;6.50;;;14.60;99.90;;;;;;5086847;28;20065;-43
2021/10/19 00:40:14;;;;;;;7.95;7.07;;;14.50;99.90;;;;;;5085408;28;20078;-43
2021/10/19 00:42:40;;;;;;;7.72;6.93;;;14.50;99.90;;;;;;5087104;28;20020;-43
2021/10/19 00:45:07;;;;;;;8.63;6.82;;;14.50;99.90;;;;;;5086146;28;20024;-43
2021/10/19 00:47:34;;;;;;;8.30;6.97;;;14.50;99.90;;;;;;5086112;28;20020;-42
2021/10/19 00:50:00;;;;;;;8.52;6.70;;;14.50;99.90;;;;;;5086942;28;20408;-42
2021/10/19 00:52:26;;;;;;;9.35;6.82;;;14.50;99.90;;;;;;5085690;28;20043;-42
2021/10/19 00:54:52;;;;;;;7.43;6.72;;;14.40;99.90;;;;;;5085777;28;20487;-43
2021/10/19 00:57:18;;;;;;;7.20;6.45;;;14.40;99.90;;;;;;5086485;28;20417;-42
2021/10/19 00:59:45;;;;;;;7.97;6.80;;;14.50;99.90;;;;;;5086190;28;20049;-43
2021/10/19 01:02:15;;;;;;;8.50;6.95;;;14.40;99.90;;;;;;5086155;28;20047;-44
2021/10/19 01:04:41;;;;;;;11.38;8.75;;;14.40;99.90;;;;;;5086904;28;20024;-42
2021/10/19 01:07:11;;;;;;;8.43;7.55;;;14.40;99.90;;;;;;5085194;28;20405;-44
2021/10/19 01:09:37;;;;;;;9.30;6.78;;;14.40;99.90;;;;;;5086828;28;20008;-44
2021/10/19 01:12:05;;;;;;;8.30;7.15;;;14.40;99.90;;;;;;5086475;28;20042;-43
2021/10/19 01:14:30;;;;;;;7.93;7.05;;;14.40;99.90;;;;;;5085101;28;20027;-43
2021/10/19 01:16:57;;;;;;;8.27;6.43;;;14.40;99.90;;;;;;5086395;28;20028;-44
2021/10/19 01:19:23;;;;;;;8.52;6.93;;;14.40;99.90;;;;;;5087727;28;20501;-42
2021/10/19 01:21:57;;;;;;;8.07;7.00;;;14.40;99.90;;;;;;5089555;28;20028;-43
2021/10/19 01:24:23;;;;;;;7.97;7.00;;;14.40;99.90;;;;;;5089603;28;20093;-43
2021/10/19 01:26:49;;;;;;;7.65;6.85;;;14.40;99.90;;;;;;5070088;28;20460;-44
2021/10/19 01:29:15;;;;;;;10.32;7.00;;;14.40;99.90;;;;;;5082396;28;20138;-43
2021/10/19 01:31:47;;;;;;;9.15;6.50;;;14.40;99.90;;;;;;5090070;28;20030;-43
2021/10/19 01:34:14;;;;;;;7.63;6.90;;;14.40;99.90;;;;;;5089318;28;20024;-42
2021/10/19 01:36:39;;;;;;;8.70;7.50;;;14.40;99.90;;;;;;5089634;28;20027;-43
2021/10/19 01:39:06;;;;;;;8.48;6.80;;;14.40;99.90;;;;;;5088783;28;20024;-44
2021/10/19 01:41:31;;;;;;;7.70;6.90;;;14.40;99.90;;;;;;5090293;28;20105;-44
2021/10/19 01:43:57;;;;;;;8.55;7.05;;;14.40;99.90;;;;;;5088741;28;20084;-42
2021/10/19 01:46:26;;;;;;;8.45;7.20;;;14.40;99.90;;;;;;5089533;28;20568;-42
2021/10/19 01:48:51;;;;;;;7.97;6.82;;;14.40;99.90;;;;;;5088863;28;20023;-42
2021/10/19 01:51:17;;;;;;;9.55;7.43;;;14.40;99.90;;;;;;5089173;28;20024;-43
2021/10/19 01:53:44;;;;;;;8.10;7.00;;;14.50;99.90;;;;;;5088878;28;20044;-42
2021/10/19 01:56:10;;;;;;;7.97;7.18;;;14.50;99.90;;;;;;5088564;28;20015;-42
2021/10/19 01:58:36;;;;;;;7.30;6.60;;;14.40;99.90;;;;;;5089651;28;20024;-42
2021/10/19 02:01:02;;;;;;;7.57;6.78;;;14.50;99.90;;;;;;5088872;28;20535;-43
2021/10/19 02:03:28;;;;;;;7.55;6.60;;;14.50;99.90;;;;;;5088819;28;20089;-43
2021/10/19 02:05:53;;;;;;;8.27;7.45;;;14.50;99.90;;;;;;5088486;28;20487;-44
2021/10/19 02:08:19;;;;;;;8.82;7.93;;;14.50;99.90;;;;;;5089163;28;20023;-43
2021/10/19 02:10:45;;;;;;;8.45;7.55;;;14.50;99.90;;;;;;5088827;28;20415;-43
2021/10/19 02:13:11;;;;;;;9.00;7.53;;;14.50;99.90;;;;;;5088589;28;20016;-44
2021/10/19 02:15:37;;;;;;;7.40;6.70;;;14.60;99.90;;;;;;5088924;28;20481;-43
2021/10/19 02:18:03;;;;;;;7.85;6.93;;;14.60;99.90;;;;;;5088067;28;20114;-44
2021/10/19 02:20:30;;;;;;;7.20;6.50;;;14.60;99.90;;;;;;5088451;28;20115;-43
2021/10/19 02:22:56;;;;;;;7.90;6.70;;;14.60;99.90;;;;;;5088615;28;20020;-43
2021/10/19 02:25:22;;;;;;;8.15;7.35;;;14.70;99.90;;;;;;5087573;28;20398;-42
2021/10/19 02:27:48;;;;;;;9.38;7.28;;;14.70;99.90;;;;;;5089372;28;20081;-43
2021/10/19 02:30:18;;;;;;;7.75;6.95;;;14.60;99.90;;;;;;5069349;28;20016;-44
2021/10/19 02:32:43;;;;;;;7.55;6.80;;;14.70;99.90;;;;;;5077382;28;20156;-44
2021/10/19 02:35:11;;;;;;;8.85;7.30;;;14.80;99.90;;;;;;5087907;28;20046;-44
2021/10/19 02:37:38;;;;;;;8.50;6.57;;;14.70;99.90;;;;;;5088754;28;20537;-43
2021/10/19 02:40:04;;;;;;;7.55;6.55;;;14.80;99.90;;;;;;5087865;28;20020;-44
2021/10/19 02:42:30;;;;;;;8.95;6.90;;;14.80;99.90;;;;;;5088336;28;20021;-44
2021/10/19 02:44:56;;;;;;;6.45;5.78;;;14.80;99.90;;;;;;5088637;28;20120;-43
2021/10/19 02:47:21;;;;;;;8.35;7.07;;;14.80;99.90;;;;;;5087309;28;20023;-43
2021/10/19 02:49:47;;;;;;;7.50;6.63;;;14.80;99.90;;;;;;5089064;28;20024;-43
2021/10/19 02:52:13;;;;;;;10.07;7.40;;;14.80;99.90;;;;;;5086567;28;20462;-42
2021/10/19 02:54:38;;;;;;;8.75;7.85;;;14.80;99.90;;;;;;5088314;28;20032;-43
2021/10/19 02:57:04;;;;;;;6.53;5.90;;;14.80;99.90;;;;;;5088216;28;20077;-42
2021/10/19 02:59:30;;;;;;;8.68;6.80;;;14.80;99.90;;;;;;5087700;28;20038;-43
2021/10/19 03:01:55;;;;;;;7.43;6.72;;;14.80;99.90;;;;;;5087640;28;20027;-44
2021/10/19 03:04:21;;;;;;;6.90;6.20;;;14.80;99.90;;;;;;5088258;28;20407;-43
2021/10/19 03:06:46;;;;;;;6.60;6.00;;;14.80;99.90;;;;;;5087326;28;20016;-43
2021/10/19 03:09:12;;;;;;;7.68;6.43;;;14.80;99.90;;;;;;5087799;28;20024;-44
2021/10/19 03:11:37;;;;;;;8.55;7.50;;;14.80;99.90;;;;;;5088349;28;20035;-44
2021/10/19 03:14:03;;;;;;;7.63;6.43;;;14.90;99.90;;;;;;5086976;28;20450;-44
2021/10/19 03:16:28;;;;;;;7.70;6.88;;;14.90;99.90;;;;;;5087892;28;20028;-43
2021/10/19 03:18:54;;;;;;;7.50;6.78;;;14.90;99.90;;;;;;5087371;28;20022;-43
2021/10/19 03:21:19;;;;;;;7.65;6.63;;;14.90;99.90;;;;;;5087493;28;20471;-43
2021/10/19 03:23:45;;;;;;;7.00;6.30;;;14.90;99.90;;;;;;5087754;28;20065;-42
2021/10/19 03:26:12;;;;;;;8.32;6.00;;;15.00;99.90;;;;;;5087195;28;20084;-42
2021/10/19 03:28:38;;;;;;;6.68;5.95;;;15.00;99.90;;;;;;5087099;28;20141;-43
2021/10/19 03:31:04;;;;;;;7.47;6.65;;;15.00;99.90;;;;;;5087540;28;20160;-43
2021/10/19 03:33:30;;;;;;;8.63;6.93;;;15.00;99.90;;;;;;5087270;28;20139;-43
2021/10/19 03:35:55;;;;;;;9.32;6.72;;;15.00;99.90;;;;;;5087003;28;20112;-44
2021/10/19 03:38:21;;;;;;;6.65;5.88;;;15.00;99.90;;;;;;5087180;28;20012;-42
2021/10/19 03:40:47;;;;;;;6.03;5.35;;;15.00;99.90;;;;;;5087524;28;20035;-42
2021/10/19 03:43:12;;;;;;;6.93;6.30;;;15.00;99.90;;;;;;5085406;28;20476;-43
2021/10/19 03:45:38;;;;;;;7.82;7.00;;;15.00;99.90;;;;;;5087437;28;20032;-42
2021/10/19 03:48:04;;;;;;;8.43;6.00;;;14.90;99.90;;;;;;5086821;28;20062;-43
2021/10/19 03:50:29;;;;;;;6.97;6.28;;;15.00;99.90;;;;;;5086805;28;20122;-43
2021/10/19 03:52:57;;;;;;;7.70;6.90;;;15.00;99.90;;;;;;5086782;28;20044;-43
2021/10/19 03:55:24;;;;;;;10.85;6.90;;;15.00;99.90;;;;;;5085993;28;20032;-44
2021/10/19 03:57:50;;;;;;;7.47;6.50;;;15.00;99.90;;;;;;5087754;28;20020;-43
2021/10/19 04:00:15;;;;;;;8.43;6.85;;;15.00;99.90;;;;;;5086558;28;20031;-42
2021/10/19 04:02:41;;;;;;;8.32;7.13;;;15.00;99.90;;;;;;5087073;28;20032;-43
2021/10/19 04:05:07;;;;;;;6.85;5.97;;;15.00;99.90;;;;;;5086403;28;20016;-43
2021/10/19 04:07:34;;;;;;;6.15;5.55;;;15.00;99.90;;;;;;5086995;28;20035;-43
2021/10/19 04:10:01;;;;;;;7.20;6.50;;;15.00;99.90;;;;;;5086085;28;20103;-42
2021/10/19 04:12:26;;;;;;;6.10;5.47;;;15.00;99.90;;;;;;5087098;28;20034;-44
2021/10/19 04:14:52;;;;;;;6.35;5.63;;;15.00;99.90;;;;;;5086738;28;20024;-43
2021/10/19 04:17:17;;;;;;;5.65;5.15;;;15.10;99.90;;;;;;5086585;28;20028;-43
2021/10/19 04:19:43;;;;;;;8.32;6.85;;;15.10;99.90;;;;;;5086653;28;20114;-43
2021/10/19 04:22:08;;;;;;;6.43;5.43;;;15.10;99.90;;;;;;5086470;28;20513;-42
2021/10/19 04:24:34;;;;;;;6.80;6.20;;;15.10;99.90;;;;;;5086327;28;20024;-44
2021/10/19 04:26:59;;;;;;;6.88;6.18;;;15.10;99.90;;;;;;5087170;28;20048;-44
2021/10/19 04:29:25;;;;;;;8.65;7.65;;;15.10;99.90;;;;;;5086294;28;20032;-43
2021/10/19 04:31:50;;;;;;;8.10;7.15;;;15.10;99.90;;;;;;5085891;28;20035;-42
2021/10/19 04:34:16;;;;;;;7.85;7.05;;;15.10;99.90;;;;;;5086354;28;20035;-44
2021/10/19 04:36:41;;;;;;;8.25;7.35;;;15.10;99.90;;;;;;5086785;28;20085;-43
2021/10/19 04:39:07;;;;;;;10.07;7.65;;;15.10;99.90;;;;;;5085710;28;20518;-42
2021/10/19 04:41:32;;;;;;;7.50;6.80;;;15.10;99.90;;;;;;5086723;28;20376;-44
2021/10/19 04:43:58;;;;;;;7.72;6.63;;;15.10;99.90;;;;;;5086617;28;20024;-43
2021/10/19 04:46:23;;;;;;;7.15;6.45;;;15.10;99.90;;;;;;5085721;28;20028;-43
2021/10/19 04:48:49;;;;;;;7.07;6.38;;;15.10;99.90;;;;;;5086817;28;20028;-43
2021/10/19 04:51:15;;;;;;;7.53;6.20;;;15.10;99.90;;;;;;5086067;28;20119;-43
2021/10/19 04:53:40;;;;;;;8.25;7.43;;;15.10;99.90;;;;;;5088351;28;20044;-42
2021/10/19 04:56:06;;;;;;;7.05;6.35;;;15.10;99.90;;;;;;5089768;28;20482;-43
2021/10/19 04:58:33;;;;;;;8.07;7.07;;;15.10;99.90;;;;;;5090896;28;20590;-44
2021/10/19 05:00:58;;;;;;;7.78;7.07;;;15.10;99.90;;;;;;5089399;28;20056;-43
2021/10/19 05:03:24;;;;;;;8.32;7.50;;;15.10;99.90;;;;;;5089906;28;20493;-43
2021/10/19 05:05:50;;;;;;;8.75;7.88;;;15.10;99.90;;;;;;5090220;28;20022;-43
2021/10/19 05:08:15;;;;;;;7.70;6.90;;;15.00;99.90;;;;;;5089834;28;20016;-43
2021/10/19 05:10:43;;;;;;;8.65;7.75;;;15.10;99.90;;;;;;5090405;28;20020;-43
2021/10/19 05:13:09;;;;;;;8.15;7.20;;;15.00;99.90;;;;;;5089566;28;20063;-43
2021/10/19 05:15:35;;;;;;;7.97;6.35;;;15.00;99.90;;;;;;5090215;28;20028;-44
2021/10/19 05:18:00;;;;;;;6.72;6.13;;;15.00;99.90;;;;;;5089760;28;20073;-43
2021/10/19 05:20:26;;;;;;;7.72;6.88;;;15.00;99.90;;;;;;5089433;28;20024;-44
2021/10/19 05:22:51;;;;;;;9.32;8.32;;;15.00;99.90;;;;;;5089990;28;20436;-43
2021/10/19 05:25:17;;;;;;;7.90;7.10;;;15.00;99.90;;;;;;5089950;28;20066;-43
2021/10/19 05:27:44;;;;;;;8.73;7.82;;;15.00;99.90;;;;;;5089444;28;20020;-43
2021/10/19 05:30:10;;;;;;;8.88;7.30;;;15.00;99.90;;;;;;5089420;28;20380;-44
2021/10/19 05:32:36;;;;;;;6.93;6.28;;;15.00;99.90;;;;;;5089517;28;20020;-43
2021/10/19 05:35:02;;;;;;;8.43;7.55;;;15.00;99.90;;;;;;5089082;28;20075;-44
2021/10/19 05:37:27;;;;;;;7.93;7.10;;;15.00;99.90;;;;;;5089300;28;20467;-43
2021/10/19 05:39:53;;;;;;;6.70;6.10;;;15.00;99.90;;;;;;5089660;28;20099;-43
2021/10/19 05:42:18;;;;;;;7.88;7.10;;;15.10;99.90;;;;;;5088872;28;20023;-44
2021/10/19 05:44:44;;;;;;;8.15;7.35;;;15.10;99.90;;;;;;5089608;28;20024;-43
2021/10/19 05:47:10;;;;;;;8.00;7.20;;;15.10;99.90;;;;;;5088745;28;20459;-42
2021/10/19 05:49:36;;;;;;;7.15;6.55;;;15.10;99.90;;;;;;5089561;28;20074;-44
2021/10/19 05:52:02;;;;;;;6.97;6.38;;;15.10;99.90;;;;;;5089168;28;20049;-43
2021/10/19 05:54:28;;;;;;;7.80;7.10;;;15.00;99.90;;;;;;5089760;28;20578;-44
2021/10/19 05:56:54;;;;;;;7.47;6.72;;;15.00;99.90;;;;;;5086012;28;20031;-44
2021/10/19 05:59:20;;;;;;;8.20;6.90;;;15.00;99.90;;;;;;5089199;28;20065;-43
2021/10/19 06:01:46;;;;;;;7.43;6.72;;;15.00;99.90;;;;;;5088113;28;20024;-42
2021/10/19 06:04:12;;;;;;;7.47;6.78;;;15.00;99.90;;;;;;5085722;28;20042;-43
2021/10/19 06:06:37;;;;;;;6.97;6.32;;;15.10;99.90;;;;;;5088132;28;20036;-43
2021/10/19 06:09:04;;;;;;;7.50;6.80;;;15.10;99.90;;;;;;5087072;28;20024;-43
2021/10/19 06:11:29;;;;;;;7.63;6.72;;;15.10;99.90;;;;;;5101893;28;20027;-44
2021/10/19 06:13:55;;;;;;;7.00;5.70;;;15.10;99.90;;;;;;5091987;28;20032;-45
2021/10/19 06:16:21;;;;;;;7.30;6.60;;;15.10;99.90;;;;;;5104218;28;20080;-43
2021/10/19 06:18:46;;;;;;;7.18;6.57;;;15.10;99.90;;;;;;5095661;28;20116;-43
2021/10/19 06:21:12;;;;;;;6.93;6.32;;;15.10;99.90;;;;;;5087448;28;20081;-43
2021/10/19 06:23:38;;;;;;;5.28;4.85;;;15.20;99.90;;;;;;5093476;28;20062;-44
2021/10/19 06:26:04;;;;;;;6.57;5.97;;;15.20;99.90;;;;;;5090675;28;20505;-44
2021/10/19 06:28:30;;;;;;;6.80;6.10;;;15.20;99.90;;;;;;5088985;28;20027;-44
2021/10/19 06:30:56;;;;;;;6.50;5.90;;;15.20;99.90;;;;;;5088317;28;20020;-43
2021/10/19 06:33:21;;;;;;;6.95;6.25;;;15.20;99.90;;;;;;5088113;28;20024;-43
2021/10/19 06:35:47;;;;;;;6.45;5.85;;;15.20;99.90;;;;;;5089194;28;20039;-43
2021/10/19 06:38:12;;;;;;;6.55;5.95;;;15.20;99.90;;;;;;5087057;28;20032;-44
2021/10/19 06:40:38;;;;;;;6.85;6.22;;;15.20;99.90;;;;;;5088892;28;20032;-44
2021/10/19 06:43:05;;;;;;;7.05;6.45;;;15.20;99.90;;;;;;5088219;28;20478;-43
2021/10/19 06:45:31;;;;;;;7.03;6.35;;;15.20;99.90;;;;;;5087497;28;20073;-43
2021/10/19 06:47:59;;;;;;;6.65;6.05;;;15.30;99.90;;;;;;5087424;28;20081;-43
2021/10/19 06:50:25;;;;;;;8.75;7.95;;;15.30;99.90;;;;;;5087025;28;20433;-45
2021/10/19 06:52:50;;;;;;;6.82;6.22;;;15.30;99.90;;;;;;5091519;28;20044;-43
2021/10/19 06:55:16;;;;;;;7.10;6.50;;;15.30;99.90;;;;;;5091779;28;20121;-43
2021/10/19 06:57:43;;;;;;;6.85;6.28;;;15.30;99.90;;;;;;5101563;28;20760;-43
2021/10/19 07:00:11;;;;;;;5.40;5.00;;;15.30;99.90;;;;;;5092819;28;20670;-43
2021/10/19 07:02:36;;;;;;;6.90;6.30;;;15.30;99.90;;;;;;5084642;28;20028;-44
2021/10/19 07:05:02;;;;;;;6.90;6.30;;;15.30;99.90;;;;;;5087334;28;20135;-43
2021/10/19 07:07:28;;;;;;;6.07;5.57;;;15.40;99.90;;;;;;5086067;28;20379;-44
2021/10/19 07:09:53;;;;;;;6.15;5.65;;;15.40;99.90;;;;;;5086979;28;20028;-44
2021/10/19 07:12:19;;;;;;;6.38;5.78;;;15.40;99.90;;;;;;5086941;28;20422;-43
2021/10/19 07:14:48;;;;;;;5.55;5.05;;;15.40;99.90;;;;;;5087431;28;20105;-44
2021/10/19 07:17:14;;;;;;;6.88;6.18;;;15.50;99.90;;;;;;5074099;28;20084;-43
2021/10/19 07:19:40;;;;;;;6.38;5.78;;;15.50;99.90;;;;;;5085979;28;20028;-44
2021/10/19 07:22:06;;;;;;;6.20;5.70;;;15.50;99.90;;;;;;5087853;28;20023;-43
2021/10/19 07:24:31;;;;;;;6.72;6.13;;;15.50;99.90;;;;;;5088397;28;20023;-43
2021/10/19 07:26:57;;;;;;;4.25;3.95;;;15.50;99.90;;;;;;5084652;28;20020;-43
2021/10/19 07:29:22;;;;;;;7.07;5.95;;;15.50;99.90;;;;;;5074091;28;20074;-43
2021/10/19 07:31:48;;;;;;;6.38;5.78;;;15.50;99.90;;;;;;5087124;28;20838;-44
2021/10/19 07:34:13;;;;;;;5.75;5.25;;;15.50;99.90;;;;;;5083906;28;20035;-43
2021/10/19 07:36:45;;;;;;;5.35;4.85;;;15.60;99.90;;;;;;5083876;28;20115;-42
2021/10/19 07:39:11;;;;;;;6.05;5.45;;;15.60;99.90;;;;;;5085615;28;20386;-44
2021/10/19 07:41:37;;;;;;;6.13;5.63;;;15.60;99.90;;;;;;5085056;28;20024;-42
2021/10/19 07:44:09;;;;;;;6.22;5.65;;;15.60;99.90;;;;;;5086354;28;20032;-43
2021/10/19 07:46:35;;;;;;;6.70;6.13;;;15.60;99.90;;;;;;5087466;28;20035;-43
2021/10/19 07:49:01;;;;;;;6.30;5.80;;;15.70;99.90;;;;;;5078977;28;20440;-44
2021/10/19 07:51:27;;;;;;;6.93;6.32;;;15.70;99.90;;;;;;5085516;28;20043;-43
2021/10/19 07:53:52;;;;;;;4.72;4.32;;;15.70;99.90;;;;;;5086012;28;20048;-43
2021/10/19 07:56:20;;;;;;;6.25;5.75;;;15.80;99.90;;;;;;5086648;28;20078;-43
2021/10/19 07:58:48;;;;;;;6.63;6.07;;;15.80;99.90;;;;;;5086929;28;20041;-43
2021/10/19 08:01:14;;;;;;;7.47;5.90;;;15.80;99.90;;;;;;5087574;28;20043;-44
2021/10/19 08:03:40;;;;;;;5.95;5.45;;;15.80;99.90;;;;;;5086976;28;20042;-44
2021/10/19 08:06:05;;;;;;;6.35;5.80;;;15.80;99.90;;;;;;5070542;28;20467;-43
2021/10/19 08:08:31;;;;;;;8.00;7.20;;;15.90;99.90;;;;;;5077098;28;20509;-44
2021/10/19 08:10:57;;;;;;;7.15;6.55;;;15.90;99.90;;;;;;5079141;28;20085;-44
2021/10/19 08:13:22;;;;;;;6.18;5.68;;;15.90;99.90;;;;;;5085756;28;20020;-44
2021/10/19 08:15:48;;;;;;;4.53;4.20;;;15.90;99.90;;;;;;5087222;28;20077;-43
2021/10/19 08:18:13;;;;;;;6.43;5.88;;;15.90;99.90;;;;;;5086124;28;20468;-44
2021/10/19 08:20:40;;;;;;;6.45;5.95;;;15.90;99.90;;;;;;5087705;28;20061;-44
2021/10/19 08:23:06;;;;;;;7.07;6.47;;;16.00;99.90;;;;;;5085987;28;20035;-44
2021/10/19 08:25:32;;;;;;;4.32;4.03;;;16.00;99.90;;;;;;5085520;28;20052;-43
2021/10/19 08:27:58;;;;;;;5.68;5.18;;;16.00;99.90;;;;;;5088980;28;20110;-43
2021/10/19 08:30:24;;;;;;;5.80;5.30;;;16.00;99.90;;;;;;5089953;28;20081;-44
2021/10/19 08:32:51;;;;;;;5.72;5.22;;;16.00;99.90;;;;;;5090943;28;20115;-43
2021/10/19 08:35:18;;;;;;;5.53;5.13;;;16.10;99.90;;;;;;5090778;28;20024;-43
2021/10/19 08:37:44;;;;;;;5.57;5.07;;;16.10;99.90;;;;;;5090217;28;20040;-44
2021/10/19 08:40:11;;;;;;;5.97;5.47;;;16.10;99.90;;;;;;5088681;28;20530;-43
2021/10/19 08:42:42;;;;;;;5.63;5.13;;;16.10;99.90;;;;;;5085126;28;20047;-44
2021/10/19 08:45:09;;;;;;;5.93;5.43;;;16.20;99.90;;;;;;5080630;28;20459;-44
2021/10/19 08:47:35;;;;;;;6.30;5.70;;;16.20;99.90;;;;;;5086742;28;20016;-43
2021/10/19 08:50:03;;;;;;;7.57;6.88;;;16.20;99.90;;;;;;5088975;28;20233;-46
2021/10/19 08:52:28;;;;;;;5.80;5.30;;;16.20;99.90;;;;;;5089313;28;20093;-44
2021/10/19 08:54:54;;;;;;;6.20;5.70;;;16.30;99.90;;;;;;5089861;28;20040;-43
2021/10/19 08:57:20;;;;;;;5.32;4.82;;;16.30;99.90;;;;;;5090950;28;20019;-43
2021/10/19 08:59:51;;;;;;;4.35;4.05;;;16.30;99.90;;;;;;5089320;28;20039;-43
2021/10/19 09:02:17;;;;;;;5.13;4.72;;;16.30;99.90;;;;;;5090366;28;20078;-44
2021/10/19 09:04:43;;;;;;;4.85;4.45;;;16.40;99.90;;;;;;5090229;28;20473;-43
2021/10/19 09:07:09;;;;;;;5.07;4.57;;;16.40;99.90;;;;;;5089316;28;20028;-44
2021/10/19 09:09:36;;;;;;;4.60;4.20;;;16.40;99.90;;;;;;5089374;28;20016;-44
2021/10/19 09:12:03;;;;;;;4.30;4.00;;;16.40;99.90;;;;;;5089451;28;20059;-44
2021/10/19 09:14:43;;;;;;;4.18;3.88;;;16.40;99.90;;;;;;5089604;28;20434;-44
2021/10/19 09:17:09;;;;;;;5.25;4.78;;;16.50;99.90;;;;;;5089557;28;20080;-43
2021/10/19 09:19:35;;;;;;;4.65;4.18;;;16.50;99.90;;;;;;5089025;28;20024;-44
2021/10/19 09:22:07;;;;;;;4.40;3.78;;;16.50;99.90;;;;;;5083962;28;20058;-46
2021/10/19 09:24:38;;;;;;;3.97;3.67;;;16.60;99.90;;;;;;5083268;28;20501;-43
2021/10/19 09:27:05;;;;;;;4.00;3.70;;;16.60;99.90;;;;;;5086693;28;20032;-43
2021/10/19 09:29:36;;;;;;;3.85;3.55;;;16.60;99.90;;;;;;5088690;28;20055;-44
2021/10/19 09:32:06;;;;;;;3.90;3.60;;;16.60;99.90;;;;;;5095936;28;20110;-43
2021/10/19 09:34:33;;;;;;;6.80;3.85;;;16.60;99.90;;;;;;5102970;28;20031;-44
2021/10/19 09:37:00;;;;;;;3.17;2.97;;;16.60;99.90;;;;;;5090017;28;20028;-43
2021/10/19 09:39:30;;;;;;;3.60;3.30;;;16.60;99.90;;;;;;5087234;28;20107;-44
2021/10/19 09:41:56;;;;;;;4.45;3.22;;;16.60;99.90;;;;;;5088623;28;20430;-44
2021/10/19 09:44:22;;;;;;;3.70;3.40;;;16.70;99.90;;;;;;5089571;28;20024;-44
2021/10/19 09:46:49;;;;;;;3.33;3.03;;;16.70;99.90;;;;;;5089798;28;20016;-43
2021/10/19 09:49:15;;;;;;;3.22;3.00;;;16.70;99.90;;;;;;5086869;28;20040;-44
2021/10/19 09:51:41;;;;;;;3.20;3.00;;;16.80;99.90;;;;;;5087177;28;20020;-44
2021/10/19 09:54:11;;;;;;;3.10;2.83;;;16.80;99.90;;;;;;5087112;28;20643;-43
2021/10/19 09:56:38;;;;;;;2.75;2.55;;;16.80;99.90;;;;;;5080993;28;20455;-44
2021/10/19 09:59:05;;;;;;;2.17;2.08;;;16.80;99.90;;;;;;5086362;28;20024;-44
2021/10/19 10:01:33;;;;;;;2.00;1.90;;;16.80;99.90;;;;;;5075654;28;20046;-43
2021/10/19 10:03:59;;;;;;;2.47;2.33;;;16.90;99.90;;;;;;5088408;28;20534;-44
2021/10/19 10:06:25;;;;;;;2.35;2.15;;;16.90;99.90;;;;;;5087572;28;20024;-46
2021/10/19 10:08:52;;;;;;;2.47;2.30;;;16.90;99.90;;;;;;5086165;28;20107;-43
2021/10/19 10:11:18;;;;;;;2.58;2.38;;;16.90;99.90;;;;;;5087714;28;20028;-44
2021/10/19 10:13:55;;;;;;;2.55;2.35;;;16.90;99.90;;;;;;5078955;28;20036;-44
2021/10/19 10:16:20;;;;;;;2.53;2.33;;;17.00;99.90;;;;;;5085446;28;20008;-44
2021/10/19 10:18:46;;;;;;;2.00;1.90;;;17.00;99.90;;;;;;5086463;28;20089;-44
2021/10/19 10:21:17;;;;;;;1.95;1.83;;;17.00;99.90;;;;;;5085509;28;20073;-44
2021/10/19 10:23:43;;;;;;;1.70;1.60;;;17.00;99.90;;;;;;5085461;28;20027;-43
2021/10/19 10:26:23;;;;;;;4.05;1.80;;;17.10;99.90;;;;;;5085464;28;20211;-44
2021/10/19 10:28:49;;;;;;;2.25;2.08;;;17.10;99.90;;;;;;5084097;28;20032;-43
2021/10/19 10:31:21;;;;;;;2.03;1.83;;;17.10;99.90;;;;;;5083364;28;20020;-43
2021/10/19 10:34:00;;;;;;;3.20;2.90;;;17.10;99.90;;;;;;5081222;28;20090;-44
2021/10/19 10:36:37;;;;;;;2.30;2.20;;;17.20;99.90;;;;;;5086653;28;20028;-44
2021/10/19 10:39:04;;;;;;;3.08;2.40;;;17.20;99.90;;;;;;5077760;28;20020;-43
2021/10/19 10:41:42;;;;;;;2.90;2.70;;;17.20;99.90;;;;;;5086416;28;20028;-44
2021/10/19 10:44:09;;;;;;;4.88;3.80;;;17.30;99.90;;;;;;5076292;28;20031;-43
2021/10/19 10:46:35;;;;;;;3.17;2.90;;;17.30;99.90;;;;;;5087000;28;20475;-44
2021/10/19 10:49:01;;;;;;;4.07;3.72;;;17.30;99.90;;;;;;5085226;28;20032;-44
2021/10/19 10:51:31;;;;;;;3.50;3.20;;;17.30;99.90;;;;;;5085417;28;20036;-44
2021/10/19 10:53:57;;;;;;;4.57;3.72;;;17.40;99.90;;;;;;5087078;28;20059;-44
2021/10/19 10:56:23;;;;;;;3.67;3.38;;;17.40;99.90;;;;;;5086840;28;20024;-43
2021/10/19 10:58:50;;;;;;;3.30;3.10;;;17.50;99.90;;;;;;5086031;28;20384;-43
2021/10/19 11:01:19;;;;;;;3.97;3.67;;;17.50;99.90;;;;;;5086393;28;20016;-44
2021/10/19 11:03:49;;;;;;;5.05;4.63;;;17.50;99.90;;;;;;5085767;28;20036;-43
2021/10/19 11:06:21;;;;;;;4.60;3.97;;;17.50;99.90;;;;;;5081227;28;20035;-43
2021/10/19 11:08:55;;;;;;;4.25;3.85;;;17.50;99.90;;;;;;5087421;28;20024;-43
2021/10/19 11:11:20;;;;;;;4.85;4.40;;;17.50;99.90;;;;;;5066869;28;20513;-43
2021/10/19 11:14:01;;;;;;;5.10;4.60;;;17.50;99.90;;;;;;5080930;28;20024;-44
2021/10/19 11:16:29;;;;;;;4.93;4.45;;;17.60;99.90;;;;;;5087163;28;20016;-43
2021/10/19 11:18:55;;;;;;;4.70;4.25;;;17.60;99.90;;;;;;5086065;28;20055;-44
2021/10/19 11:21:21;;;;;;;4.88;4.47;;;17.60;99.90;;;;;;5087313;28;20050;-43
2021/10/19 11:23:48;;;;;;;5.43;4.93;;;17.70;99.90;;;;;;5087311;28;20883;-44
2021/10/19 11:26:14;;;;;;;4.70;4.30;;;17.70;99.90;;;;;;5086318;28;20788;-44
2021/10/19 11:28:43;;;;;;;4.85;4.40;;;17.70;99.90;;;;;;5087064;28;20056;-44
2021/10/19 11:31:10;;;;;;;5.50;4.80;;;17.80;99.90;;;;;;5087389;28;20024;-44
2021/10/19 11:33:41;;;;;;;5.13;4.63;;;17.80;99.90;;;;;;5086629;28;20107;-44
2021/10/19 11:36:08;;;;;;;5.82;5.25;;;17.90;99.90;;;;;;5087276;28;20035;-44
2021/10/19 11:38:44;;;;;;;6.82;5.60;;;17.90;99.90;;;;;;5087106;28;20094;-44
2021/10/19 11:41:12;;;;;;;6.03;5.07;;;17.90;99.90;;;;;;5075961;28;20039;-43
2021/10/19 11:43:39;;;;;;;5.57;5.07;;;17.90;99.90;;;;;;5085922;28;20388;-44
2021/10/19 11:46:07;;;;;;;6.13;5.15;;;17.90;99.90;;;;;;5086826;28;20027;-44
2021/10/19 11:48:33;;;;;;;5.82;5.32;;;17.90;99.90;;;;;;5085937;28;20024;-44
2021/10/19 11:51:01;;;;;;;6.63;5.97;;;17.90;99.90;;;;;;5084974;28;20607;-44
2021/10/19 11:53:28;;;;;;;7.55;5.93;;;17.90;99.90;;;;;;5085387;28;20123;-43
2021/10/19 11:55:55;;;;;;;6.45;5.85;;;18.00;99.90;;;;;;5083391;28;20032;-44
2021/10/19 11:58:23;;;;;;;6.40;5.80;;;18.00;99.90;;;;;;5085547;28;20418;-43
2021/10/19 12:00:52;;;;;;;6.90;6.10;;;18.00;99.90;;;;;;5084429;28;20030;-44
2021/10/19 12:03:18;;;;;;;7.57;6.78;;;18.10;99.90;;;;;;5082544;28;20024;-44
2021/10/19 12:05:44;;;;;;;7.40;6.65;;;18.10;99.90;;;;;;5085289;28;20520;-43
2021/10/19 12:08:10;;;;;;;7.70;7.00;;;18.10;99.90;;;;;;5085556;28;20123;-44
2021/10/19 12:10:36;;;;;;;8.05;7.25;;;18.10;99.90;;;;;;5086651;28;20020;-43
2021/10/19 12:13:05;;;;;;;7.28;6.25;;;18.10;99.90;;;;;;5085514;28;20111;-44
2021/10/19 12:15:33;;;;;;;6.40;5.80;;;18.10;99.90;;;;;;5086026;28;20070;-43
2021/10/19 12:18:04;;;;;;;6.30;5.70;;;18.10;99.90;;;;;;5085990;28;20101;-44
2021/10/19 12:20:33;;;;;;;7.53;6.60;;;18.10;99.90;;;;;;5086472;28;20016;-44
2021/10/19 12:23:08;;;;;;;7.22;6.43;;;18.10;99.90;;;;;;5083777;28;20170;-43
2021/10/19 12:25:43;;;;;;;6.50;5.90;;;18.00;99.90;;;;;;5087067;28;20047;-44
2021/10/19 12:28:17;;;;;;;7.13;6.43;;;18.00;99.90;;;;;;5084144;28;20495;-43
2021/10/19 12:30:42;;;;;;;7.50;6.60;;;18.10;99.90;;;;;;5086223;28;20051;-44
2021/10/19 12:33:21;;;;;;;7.75;6.88;;;18.00;99.90;;;;;;5085809;28;20032;-44
2021/10/19 12:36:09;;;;;;;7.65;6.53;;;18.00;99.90;;;;;;5084997;28;20028;-44
2021/10/19 12:38:38;;;;;;;7.65;6.85;;;18.00;99.90;;;;;;5086825;28;20048;-43
2021/10/19 12:41:18;;;;;;;7.68;6.88;;;18.00;99.90;;;;;;5085132;28;20071;-45
2021/10/19 12:43:48;;;;;;;6.53;5.93;;;18.00;99.90;;;;;;5085534;28;20024;-44